createdAt,value
2023-03-27T00:00:37.376Z,7.48
2023-03-27T00:05:40.790Z,7.47
2023-03-27T00:10:42.537Z,7.49
2023-03-27T00:15:44.713Z,7.52
2023-03-27T00:20:46.644Z,7.58
2023-03-27T00:25:49.957Z,7.58
2023-03-27T00:30:51.706Z,7.55
2023-03-27T00:35:54.240Z,7.48
2023-03-27T00:40:56.589Z,7.42
2023-03-27T00:46:02.365Z,7.47
2023-03-27T00:51:05.789Z,7.55
2023-03-27T00:56:08.880Z,7.53
2023-03-27T01:01:14.386Z,7.51
2023-03-27T01:06:17.252Z,7.55
2023-03-27T01:11:46.549Z,7.60
2023-03-27T01:16:54.401Z,7.47
2023-03-27T01:22:22.077Z,7.35
2023-03-27T01:27:48.788Z,7.30
2023-03-27T01:33:21.577Z,7.23
2023-03-27T01:38:35.650Z,7.20
2023-03-27T01:44:05.070Z,7.14
2023-03-27T01:49:20.259Z,7.12
2023-03-27T01:54:31.034Z,7.12
2023-03-27T01:59:37.578Z,7.07
2023-03-27T02:04:59.853Z,7.07
2023-03-27T02:10:08.290Z,7.09
2023-03-27T02:15:23.535Z,7.15
2023-03-27T02:20:27.683Z,7.18
2023-03-27T02:25:45.598Z,7.20
2023-03-27T02:31:32.480Z,7.15
2023-03-27T02:36:45.194Z,7.15
2023-03-27T02:42:09.482Z,7.16
2023-03-27T02:47:30.825Z,7.20
2023-03-27T02:52:43.544Z,7.21
2023-03-27T02:57:52.356Z,7.21
2023-03-27T03:03:27.909Z,7.27
2023-03-27T03:08:38.896Z,7.30
2023-03-27T03:13:43.292Z,7.29
2023-03-27T03:18:44.986Z,7.28
2023-03-27T03:23:57.896Z,7.27
2023-03-27T03:29:02.054Z,7.33
2023-03-27T03:34:07.118Z,7.34
2023-03-27T03:39:09.491Z,7.24
2023-03-27T03:44:11.310Z,7.19
2023-03-27T03:49:13.568Z,7.09
2023-03-27T03:54:15.857Z,7.04
2023-03-27T03:59:18.238Z,6.96
2023-03-27T04:04:48.061Z,6.97
2023-03-27T04:09:51.653Z,6.96
2023-03-27T04:15:00.662Z,6.92
2023-03-27T04:20:22.004Z,6.84
2023-03-27T04:25:24.401Z,6.70
2023-03-27T04:30:27.771Z,6.63
2023-03-27T04:36:06.428Z,6.62
2023-03-27T04:41:21.534Z,6.59
2023-03-27T04:46:23.749Z,6.58
2023-03-27T04:51:32.519Z,6.59
2023-03-27T04:56:37.641Z,6.64
2023-03-27T05:01:40.355Z,6.66
2023-03-27T05:06:55.295Z,6.67
2023-03-27T05:11:57.414Z,6.66
2023-03-27T05:17:00.870Z,6.70
2023-03-27T05:22:03.183Z,6.74
2023-03-27T05:27:05.447Z,6.78
2023-03-27T05:32:08.160Z,6.80
2023-03-27T05:37:16.536Z,6.88
2023-03-27T05:42:50.525Z,6.94
2023-03-27T05:47:54.040Z,6.93
2023-03-27T05:53:01.542Z,6.98
2023-03-27T05:58:13.348Z,7.05
2023-03-27T06:03:15.561Z,7.11
2023-03-27T06:08:32.364Z,7.18
2023-03-27T06:13:34.150Z,7.25
2023-03-27T06:18:41.350Z,7.25
2023-03-27T06:23:44.545Z,7.30
2023-03-27T06:28:47.802Z,7.37
2023-03-27T06:33:50.295Z,7.41
2023-03-27T06:39:05.675Z,7.40
2023-03-27T06:44:08.172Z,7.42
2023-03-27T06:49:48.767Z,7.52
2023-03-27T06:54:55.713Z,7.53
2023-03-27T06:59:58.840Z,7.48
2023-03-27T07:05:16.735Z,7.44
2023-03-27T07:10:18.877Z,7.37
2023-03-27T07:15:22.075Z,7.35
2023-03-27T07:20:25.367Z,7.36
2023-03-27T07:25:37.015Z,7.34
2023-03-27T07:30:41.399Z,7.31
2023-03-27T07:35:47.473Z,7.26
2023-03-27T07:41:09.340Z,7.14
2023-03-27T07:46:34.394Z,7.00
2023-03-27T07:51:38.767Z,6.91
2023-03-27T07:56:41.341Z,6.83
2023-03-27T08:02:06.414Z,6.66
2023-03-27T08:07:11.714Z,6.49
2023-03-27T08:12:15.745Z,6.33
2023-03-27T08:17:22.321Z,6.15
2023-03-27T08:22:24.726Z,5.96
2023-03-27T08:28:04.826Z,5.57
2023-03-27T08:33:09.899Z,5.17
2023-03-27T08:38:23.648Z,4.78
2023-03-27T08:43:44.116Z,4.44
2023-03-27T08:49:12.566Z,4.16
2023-03-27T08:54:22.292Z,3.80
2023-03-27T08:59:28.235Z,3.73
2023-03-27T09:04:53.749Z,3.50
2023-03-27T09:10:15.358Z,3.21
2023-03-27T09:15:37.124Z,2.92
2023-03-27T09:20:44.820Z,2.75
2023-03-27T09:25:51.531Z,2.66
2023-03-27T09:31:27.824Z,2.60
2023-03-27T09:36:30.678Z,2.38
2023-03-27T09:41:48.184Z,2.07
2023-03-27T09:46:58.084Z,1.89
2023-03-27T09:52:02.557Z,1.69
2023-03-27T09:57:33.808Z,1.57
2023-03-27T10:02:37.068Z,1.48
2023-03-27T10:07:41.587Z,1.40
2023-03-27T10:13:01.212Z,1.33
2023-03-27T10:18:28.293Z,1.40
2023-03-27T10:24:06.996Z,1.39
2023-03-27T10:29:37.657Z,1.31
2023-03-27T10:34:53.377Z,1.34
2023-03-27T10:40:30.894Z,1.30
2023-03-27T10:45:47.137Z,1.32
2023-03-27T10:50:54.293Z,1.27
2023-03-27T10:56:42.699Z,1.27
2023-03-27T11:01:53.804Z,1.47
2023-03-27T11:06:58.578Z,1.74
2023-03-27T11:12:10.307Z,2.01
2023-03-27T11:17:21.028Z,2.20
2023-03-27T11:22:42.113Z,2.43
2023-03-27T11:27:58.476Z,2.37
2023-03-27T11:33:32.274Z,2.26
2023-03-27T11:38:46.347Z,2.33
2023-03-27T11:43:48.630Z,2.39
2023-03-27T11:49:36.231Z,2.47
2023-03-27T11:55:10.150Z,2.44
2023-03-27T12:00:19.292Z,2.46
2023-03-27T12:05:37.384Z,2.47
2023-03-27T12:10:43.119Z,2.46
2023-03-27T12:16:18.458Z,2.42
2023-03-27T12:21:54.133Z,2.42
2023-03-27T12:27:12.141Z,2.44
2023-03-27T12:32:40.787Z,2.44
2023-03-27T12:37:56.008Z,2.50
2023-03-27T12:43:33.711Z,2.64
2023-03-27T12:49:00.928Z,2.65
2023-03-27T12:54:29.239Z,2.51
2023-03-27T12:59:59.103Z,2.34
2023-03-27T13:05:26.873Z,2.33
2023-03-27T13:10:35.324Z,2.29
2023-03-27T13:15:43.354Z,2.32
2023-03-27T13:20:46.400Z,2.47
2023-03-27T13:26:03.923Z,2.49
2023-03-27T13:31:11.697Z,2.47
2023-03-27T13:36:29.986Z,2.57
2023-03-27T13:41:38.114Z,2.77
2023-03-27T13:47:13.002Z,2.82
2023-03-27T13:52:42.305Z,2.78
2023-03-27T13:57:56.725Z,2.83
2023-03-27T14:03:15.334Z,2.92
2023-03-27T14:08:37.937Z,2.94
2023-03-27T14:14:14.843Z,2.97
2023-03-27T14:19:48.729Z,2.93
2023-03-27T14:25:00.304Z,3.16
2023-03-27T14:30:20.358Z,3.20
2023-03-27T14:35:38.030Z,3.26
2023-03-27T14:40:50.311Z,3.16
2023-03-27T14:45:57.284Z,3.20
2023-03-27T14:51:03.079Z,3.29
2023-03-27T14:56:23.394Z,3.25
2023-03-27T15:01:32.171Z,3.31
2023-03-27T15:06:36.783Z,3.38
2023-03-27T15:11:41.138Z,3.42
2023-03-27T15:16:58.135Z,3.34
2023-03-27T15:22:07.577Z,3.23
2023-03-27T15:27:20.063Z,3.15
2023-03-27T15:32:22.416Z,3.32
2023-03-27T15:37:28.549Z,3.35
2023-03-27T15:42:51.064Z,3.29
2023-03-27T15:48:02.937Z,3.33
2023-03-27T15:53:04.800Z,3.36
2023-03-27T15:58:13.604Z,3.22
2023-03-27T16:03:21.380Z,3.04
2023-03-27T16:08:23.546Z,2.88
2023-03-27T16:13:52.822Z,2.81
2023-03-27T16:18:58.333Z,2.83
2023-03-27T16:24:00.191Z,2.89
2023-03-27T16:29:04.512Z,2.91
2023-03-27T16:34:11.693Z,2.92
2023-03-27T16:39:24.851Z,2.84
2023-03-27T16:44:26.557Z,2.81
2023-03-27T16:49:28.198Z,2.74
2023-03-27T16:54:29.939Z,2.63
2023-03-27T16:59:31.636Z,2.53
2023-03-27T17:04:33.477Z,2.42
2023-03-27T17:09:35.846Z,2.25
2023-03-27T17:14:37.677Z,2.09
2023-03-27T17:19:39.377Z,1.93
2023-03-27T17:24:55.340Z,1.76
2023-03-27T17:29:58.790Z,1.63
2023-03-27T17:35:00.524Z,1.53
2023-03-27T17:40:06.001Z,1.45
2023-03-27T17:45:07.930Z,1.34
2023-03-27T17:50:10.423Z,1.23
2023-03-27T17:55:12.101Z,1.10
2023-03-27T18:00:14.713Z,0.99
2023-03-27T18:05:17.264Z,0.88
2023-03-27T18:10:20.389Z,0.77
2023-03-27T18:15:22.091Z,0.67
2023-03-27T18:20:24.039Z,0.53
2023-03-27T18:25:25.743Z,0.46
2023-03-27T18:30:27.649Z,0.52
2023-03-27T18:35:29.749Z,0.52
2023-03-27T18:40:33.468Z,0.53
2023-03-27T18:45:38.256Z,0.50
2023-03-27T18:50:39.909Z,0.36
2023-03-27T18:55:41.569Z,0.21
2023-03-27T19:00:43.725Z,0.12
2023-03-27T19:05:54.899Z,0.11
2023-03-27T19:10:59.583Z,0.03
2023-03-27T19:16:21.843Z,-0.17
2023-03-27T19:21:26.849Z,-0.24
2023-03-27T19:26:49.041Z,-0.34
2023-03-27T19:31:51.952Z,-0.52
2023-03-27T19:36:55.155Z,-0.66
2023-03-27T19:41:58.891Z,-0.80
2023-03-27T19:47:03.700Z,-0.81
2023-03-27T19:52:07.337Z,-0.80
2023-03-27T19:57:09.064Z,-0.77
2023-03-27T20:02:14.672Z,-0.71
2023-03-27T20:07:16.547Z,-0.67
2023-03-27T20:12:19.830Z,-0.68
2023-03-27T20:17:27.947Z,-0.65
2023-03-27T20:22:31.124Z,-0.72
2023-03-27T20:27:32.961Z,-0.78
2023-03-27T20:32:35.261Z,-0.81
2023-03-27T20:37:39.601Z,-0.82
2023-03-27T20:42:50.382Z,-0.81
2023-03-27T20:47:52.879Z,-0.83
2023-03-27T20:52:57.940Z,-0.77
2023-03-27T20:57:59.580Z,-0.77
2023-03-27T21:03:01.759Z,-0.83
2023-03-27T21:08:07.421Z,-0.90
2023-03-27T21:13:15.318Z,-0.95
2023-03-27T21:18:17.452Z,-1.07
2023-03-27T21:23:22.006Z,-1.13
2023-03-27T21:28:23.669Z,-1.27
2023-03-27T21:33:25.660Z,-1.52
2023-03-27T21:38:28.245Z,-1.77
2023-03-27T21:43:31.426Z,-2.02
2023-03-27T21:48:33.623Z,-2.22
2023-03-27T21:53:37.059Z,-2.38
2023-03-27T21:58:38.769Z,-2.49
2023-03-27T22:03:40.740Z,-2.57
2023-03-27T22:08:43.556Z,-2.65
2023-03-27T22:13:47.056Z,-2.77
2023-03-27T22:18:49.192Z,-2.93
2023-03-27T22:23:52.293Z,-3.09
2023-03-27T22:28:54.544Z,-3.20
2023-03-27T22:33:56.840Z,-3.30
2023-03-27T22:38:58.947Z,-3.38
2023-03-27T22:44:01.927Z,-3.45
2023-03-27T22:49:03.812Z,-3.46
2023-03-27T22:54:06.071Z,-3.43
2023-03-27T22:59:08.894Z,-3.39
2023-03-27T23:04:10.761Z,-3.40
2023-03-27T23:09:13.172Z,-3.39
2023-03-27T23:14:17.113Z,-3.42
2023-03-27T23:19:19.002Z,-3.51
2023-03-27T23:24:20.874Z,-3.58
2023-03-27T23:29:22.622Z,-3.65
2023-03-27T23:34:24.550Z,-3.63
2023-03-27T23:39:26.428Z,-3.58
2023-03-27T23:44:29.228Z,-3.55
2023-03-27T23:49:32.462Z,-3.60
2023-03-27T23:54:36.528Z,-3.66
2023-03-27T23:59:38.619Z,-3.75
